sensor_id;sensor_type;location;lat;lon;timestamp;temperature;humidity
61841;DHT22;47773;53.174;6.614;2022-09-27T00:02:16;11.50;99.90
61841;DHT22;47773;53.174;6.614;2022-09-27T00:04:41;11.50;99.90
61841;DHT22;47773;53.174;6.614;2022-09-27T00:07:07;11.50;99.90
61841;DHT22;47773;53.174;6.614;2022-09-27T00:09:34;11.40;99.90
61841;DHT22;47773;53.174;6.614;2022-09-27T00:12:01;11.40;99.90
61841;DHT22;47773;53.174;6.614;2022-09-27T00:14:26;11.40;99.90
61841;DHT22;47773;53.174;6.614;2022-09-27T00:16:52;11.40;99.90
61841;DHT22;47773;53.174;6.614;2022-09-27T00:19:19;11.30;99.90
61841;DHT22;47773;53.174;6.614;2022-09-27T00:21:47;11.30;99.90
61841;DHT22;47773;53.174;6.614;2022-09-27T00:24:17;11.30;99.90
61841;DHT22;47773;53.174;6.614;2022-09-27T00:26:43;11.30;99.90
61841;DHT22;47773;53.174;6.614;2022-09-27T00:29:09;11.30;99.90
61841;DHT22;47773;53.174;6.614;2022-09-27T00:31:36;11.30;99.90
61841;DHT22;47773;53.174;6.614;2022-09-27T00:34:02;11.30;99.90
61841;DHT22;47773;53.174;6.614;2022-09-27T00:36:29;11.20;99.90
61841;DHT22;47773;53.174;6.614;2022-09-27T00:38:55;11.20;99.90
61841;DHT22;47773;53.174;6.614;2022-09-27T00:41:24;11.20;99.90
61841;DHT22;47773;53.174;6.614;2022-09-27T00:46:22;11.20;99.90
61841;DHT22;47773;53.174;6.614;2022-09-27T00:49:04;11.20;99.90
61841;DHT22;47773;53.174;6.614;2022-09-27T00:51:33;11.20;99.90
61841;DHT22;47773;53.174;6.614;2022-09-27T00:54:02;11.20;99.90
61841;DHT22;47773;53.174;6.614;2022-09-27T00:56:29;11.20;99.90
61841;DHT22;47773;53.174;6.614;2022-09-27T00:59:08;11.20;99.90
61841;DHT22;47773;53.174;6.614;2022-09-27T01:01:36;11.20;99.90
61841;DHT22;47773;53.174;6.614;2022-09-27T01:04:13;11.20;99.90
61841;DHT22;47773;53.174;6.614;2022-09-27T01:06:39;11.20;99.90
61841;DHT22;47773;53.174;6.614;2022-09-27T01:09:09;11.20;99.90
61841;DHT22;47773;53.174;6.614;2022-09-27T01:11:47;11.10;99.90
61841;DHT22;47773;53.174;6.614;2022-09-27T01:22:21;11.00;99.90
61841;DHT22;47773;53.174;6.614;2022-09-27T01:28:03;10.90;99.90
61841;DHT22;47773;53.174;6.614;2022-09-27T01:30:49;11.00;99.90
61841;DHT22;47773;53.174;6.614;2022-09-27T01:35:59;10.90;99.90
61841;DHT22;47773;53.174;6.614;2022-09-27T01:41:30;10.80;99.90
61841;DHT22;47773;53.174;6.614;2022-09-27T01:44:19;10.80;99.90
61841;DHT22;47773;53.174;6.614;2022-09-27T01:46:53;10.80;99.90
61841;DHT22;47773;53.174;6.614;2022-09-27T01:49:32;10.80;99.90
61841;DHT22;47773;53.174;6.614;2022-09-27T01:52:01;10.80;99.90
61841;DHT22;47773;53.174;6.614;2022-09-27T01:54:43;10.80;99.90
61841;DHT22;47773;53.174;6.614;2022-09-27T01:57:10;10.80;99.90
61841;DHT22;47773;53.174;6.614;2022-09-27T01:59:49;10.80;99.90
61841;DHT22;47773;53.174;6.614;2022-09-27T02:02:17;10.80;99.90
61841;DHT22;47773;53.174;6.614;2022-09-27T02:04:47;10.80;99.90
61841;DHT22;47773;53.174;6.614;2022-09-27T02:07:22;10.70;99.90
61841;DHT22;47773;53.174;6.614;2022-09-27T02:09:57;10.70;99.90
61841;DHT22;47773;53.174;6.614;2022-09-27T02:12:27;10.70;99.90
61841;DHT22;47773;53.174;6.614;2022-09-27T02:15:03;10.70;99.90
61841;DHT22;47773;53.174;6.614;2022-09-27T02:17:48;10.80;99.90
61841;DHT22;47773;53.174;6.614;2022-09-27T02:20:36;10.70;99.90
61841;DHT22;47773;53.174;6.614;2022-09-27T02:23:23;10.70;99.90
61841;DHT22;47773;53.174;6.614;2022-09-27T02:25:56;10.70;99.90
61841;DHT22;47773;53.174;6.614;2022-09-27T02:28:49;10.70;99.90
61841;DHT22;47773;53.174;6.614;2022-09-27T02:31:16;10.70;99.90
61841;DHT22;47773;53.174;6.614;2022-09-27T02:33:53;10.70;99.90
61841;DHT22;47773;53.174;6.614;2022-09-27T02:36:20;10.70;99.90
61841;DHT22;47773;53.174;6.614;2022-09-27T02:38:46;10.70;99.90
61841;DHT22;47773;53.174;6.614;2022-09-27T02:41:16;10.70;99.90
61841;DHT22;47773;53.174;6.614;2022-09-27T02:43:44;10.60;99.90
61841;DHT22;47773;53.174;6.614;2022-09-27T03:00:39;10.50;99.90
61841;DHT22;47773;53.174;6.614;2022-09-27T03:06:11;10.50;99.90
61841;DHT22;47773;53.174;6.614;2022-09-27T03:08:39;10.50;99.90
61841;DHT22;47773;53.174;6.614;2022-09-27T03:11:05;10.50;99.90
61841;DHT22;47773;53.174;6.614;2022-09-27T03:13:31;10.50;99.90
61841;DHT22;47773;53.174;6.614;2022-09-27T03:15:59;10.50;99.90
61841;DHT22;47773;53.174;6.614;2022-09-27T03:18:24;10.50;99.90
61841;DHT22;47773;53.174;6.614;2022-09-27T03:20:52;10.50;99.90
61841;DHT22;47773;53.174;6.614;2022-09-27T03:23:18;10.50;99.90
61841;DHT22;47773;53.174;6.614;2022-09-27T03:25:44;10.50;99.90
61841;DHT22;47773;53.174;6.614;2022-09-27T03:28:10;10.50;99.90
61841;DHT22;47773;53.174;6.614;2022-09-27T03:30:36;10.50;99.90
61841;DHT22;47773;53.174;6.614;2022-09-27T03:33:02;10.50;99.90
61841;DHT22;47773;53.174;6.614;2022-09-27T03:35:28;10.50;99.90
61841;DHT22;47773;53.174;6.614;2022-09-27T03:37:54;10.50;99.90
61841;DHT22;47773;53.174;6.614;2022-09-27T03:40:20;10.50;99.90
61841;DHT22;47773;53.174;6.614;2022-09-27T03:42:46;10.50;99.90
61841;DHT22;47773;53.174;6.614;2022-09-27T03:45:11;10.40;99.90
61841;DHT22;47773;53.174;6.614;2022-09-27T03:47:41;10.30;99.90
61841;DHT22;47773;53.174;6.614;2022-09-27T03:50:08;10.30;99.90
61841;DHT22;47773;53.174;6.614;2022-09-27T03:52:34;10.30;99.90
61841;DHT22;47773;53.174;6.614;2022-09-27T03:55:00;10.30;99.90
61841;DHT22;47773;53.174;6.614;2022-09-27T03:57:25;10.30;99.90
61841;DHT22;47773;53.174;6.614;2022-09-27T03:59:51;10.30;99.90
61841;DHT22;47773;53.174;6.614;2022-09-27T04:02:17;10.30;99.90
61841;DHT22;47773;53.174;6.614;2022-09-27T04:04:42;10.30;99.90
61841;DHT22;47773;53.174;6.614;2022-09-27T04:07:09;10.20;99.90
61841;DHT22;47773;53.174;6.614;2022-09-27T04:09:35;10.30;99.90
61841;DHT22;47773;53.174;6.614;2022-09-27T04:12:02;10.20;99.90
61841;DHT22;47773;53.174;6.614;2022-09-27T04:14:28;10.20;99.90
61841;DHT22;47773;53.174;6.614;2022-09-27T04:16:54;10.20;99.90
61841;DHT22;47773;53.174;6.614;2022-09-27T04:19:20;10.30;99.90
61841;DHT22;47773;53.174;6.614;2022-09-27T04:21:45;10.20;99.90
61841;DHT22;47773;53.174;6.614;2022-09-27T04:24:11;10.30;99.90
61841;DHT22;47773;53.174;6.614;2022-09-27T04:26:37;10.20;99.90
61841;DHT22;47773;53.174;6.614;2022-09-27T04:29:04;10.20;99.90
61841;DHT22;47773;53.174;6.614;2022-09-27T04:31:30;10.30;99.90
61841;DHT22;47773;53.174;6.614;2022-09-27T04:33:56;10.20;99.90
61841;DHT22;47773;53.174;6.614;2022-09-27T04:36:23;10.20;99.90
61841;DHT22;47773;53.174;6.614;2022-09-27T04:38:59;10.30;99.90
61841;DHT22;47773;53.174;6.614;2022-09-27T04:41:26;10.30;99.90
61841;DHT22;47773;53.174;6.614;2022-09-27T04:43:54;10.30;99.90
61841;DHT22;47773;53.174;6.614;2022-09-27T04:46:20;10.30;99.90
61841;DHT22;47773;53.174;6.614;2022-09-27T04:48:49;10.30;99.90
61841;DHT22;47773;53.174;6.614;2022-09-27T04:51:15;10.30;99.90
61841;DHT22;47773;53.174;6.614;2022-09-27T04:53:42;10.30;99.90
61841;DHT22;47773;53.174;6.614;2022-09-27T04:56:09;10.30;99.90
61841;DHT22;47773;53.174;6.614;2022-09-27T04:58:35;10.20;99.90
61841;DHT22;47773;53.174;6.614;2022-09-27T05:01:01;10.30;99.90
61841;DHT22;47773;53.174;6.614;2022-09-27T05:03:29;10.20;99.90
61841;DHT22;47773;53.174;6.614;2022-09-27T05:05:55;10.20;99.90
61841;DHT22;47773;53.174;6.614;2022-09-27T05:08:21;10.20;99.90
61841;DHT22;47773;53.174;6.614;2022-09-27T05:10:47;10.30;99.90
61841;DHT22;47773;53.174;6.614;2022-09-27T05:13:14;10.20;99.90
61841;DHT22;47773;53.174;6.614;2022-09-27T05:15:40;10.20;99.90
61841;DHT22;47773;53.174;6.614;2022-09-27T05:18:07;10.20;99.90
61841;DHT22;47773;53.174;6.614;2022-09-27T05:20:34;10.20;99.90
61841;DHT22;47773;53.174;6.614;2022-09-27T05:23:00;10.20;99.90
61841;DHT22;47773;53.174;6.614;2022-09-27T05:25:27;10.20;99.90
61841;DHT22;47773;53.174;6.614;2022-09-27T05:27:55;10.30;99.90
61841;DHT22;47773;53.174;6.614;2022-09-27T05:30:21;10.20;99.90
61841;DHT22;47773;53.174;6.614;2022-09-27T05:32:47;10.30;99.90
61841;DHT22;47773;53.174;6.614;2022-09-27T05:35:15;10.30;99.90
61841;DHT22;47773;53.174;6.614;2022-09-27T05:37:41;10.30;99.90
61841;DHT22;47773;53.174;6.614;2022-09-27T05:40:07;10.20;99.90
61841;DHT22;47773;53.174;6.614;2022-09-27T05:42:33;10.20;99.90
61841;DHT22;47773;53.174;6.614;2022-09-27T05:44:59;10.20;99.90
61841;DHT22;47773;53.174;6.614;2022-09-27T05:47:25;10.20;99.90
61841;DHT22;47773;53.174;6.614;2022-09-27T05:49:50;10.20;99.90
61841;DHT22;47773;53.174;6.614;2022-09-27T05:52:16;10.20;99.90
61841;DHT22;47773;53.174;6.614;2022-09-27T05:54:42;10.20;99.90
61841;DHT22;47773;53.174;6.614;2022-09-27T05:57:08;10.20;99.90
61841;DHT22;47773;53.174;6.614;2022-09-27T05:59:34;10.30;99.90
61841;DHT22;47773;53.174;6.614;2022-09-27T06:01:59;10.30;99.90
61841;DHT22;47773;53.174;6.614;2022-09-27T06:04:26;10.30;99.90
61841;DHT22;47773;53.174;6.614;2022-09-27T06:06:51;10.30;99.90
61841;DHT22;47773;53.174;6.614;2022-09-27T06:09:17;10.40;99.90
61841;DHT22;47773;53.174;6.614;2022-09-27T06:11:43;10.40;99.90
61841;DHT22;47773;53.174;6.614;2022-09-27T06:14:13;10.30;99.90
61841;DHT22;47773;53.174;6.614;2022-09-27T06:16:38;10.30;99.90
61841;DHT22;47773;53.174;6.614;2022-09-27T06:19:04;10.40;99.90
61841;DHT22;47773;53.174;6.614;2022-09-27T06:21:30;10.30;99.90
61841;DHT22;47773;53.174;6.614;2022-09-27T06:23:57;10.30;99.90
61841;DHT22;47773;53.174;6.614;2022-09-27T06:26:25;10.30;99.90
61841;DHT22;47773;53.174;6.614;2022-09-27T06:28:54;10.30;99.90
61841;DHT22;47773;53.174;6.614;2022-09-27T06:31:20;10.30;99.90
61841;DHT22;47773;53.174;6.614;2022-09-27T06:33:47;10.30;99.90
61841;DHT22;47773;53.174;6.614;2022-09-27T06:36:13;10.30;99.90
61841;DHT22;47773;53.174;6.614;2022-09-27T06:38:39;10.30;99.90
61841;DHT22;47773;53.174;6.614;2022-09-27T06:41:05;10.30;99.90
61841;DHT22;47773;53.174;6.614;2022-09-27T06:43:31;10.30;99.90
61841;DHT22;47773;53.174;6.614;2022-09-27T06:46:02;10.20;99.90
61841;DHT22;47773;53.174;6.614;2022-09-27T06:48:31;10.30;99.90
61841;DHT22;47773;53.174;6.614;2022-09-27T06:50:57;10.20;99.90
61841;DHT22;47773;53.174;6.614;2022-09-27T06:53:23;10.30;99.90
61841;DHT22;47773;53.174;6.614;2022-09-27T06:55:49;10.30;99.90
61841;DHT22;47773;53.174;6.614;2022-09-27T06:58:16;10.30;99.90
61841;DHT22;47773;53.174;6.614;2022-09-27T07:01:00;10.40;99.90
61841;DHT22;47773;53.174;6.614;2022-09-27T07:03:26;10.40;99.90
61841;DHT22;47773;53.174;6.614;2022-09-27T07:06:03;10.40;99.90
61841;DHT22;47773;53.174;6.614;2022-09-27T07:08:29;10.50;99.90
61841;DHT22;47773;53.174;6.614;2022-09-27T07:11:00;10.50;99.90
61841;DHT22;47773;53.174;6.614;2022-09-27T07:13:27;10.60;99.90
61841;DHT22;47773;53.174;6.614;2022-09-27T07:15:55;10.60;99.90
61841;DHT22;47773;53.174;6.614;2022-09-27T07:18:21;10.60;99.90
61841;DHT22;47773;53.174;6.614;2022-09-27T07:20:47;10.60;99.90
61841;DHT22;47773;53.174;6.614;2022-09-27T07:23:13;10.70;99.90
61841;DHT22;47773;53.174;6.614;2022-09-27T07:25:39;10.70;99.90
61841;DHT22;47773;53.174;6.614;2022-09-27T07:28:07;10.60;99.90
61841;DHT22;47773;53.174;6.614;2022-09-27T07:30:35;10.60;99.90
61841;DHT22;47773;53.174;6.614;2022-09-27T07:33:04;10.70;99.90
61841;DHT22;47773;53.174;6.614;2022-09-27T07:35:30;10.70;99.90
61841;DHT22;47773;53.174;6.614;2022-09-27T07:37:56;10.70;99.90
61841;DHT22;47773;53.174;6.614;2022-09-27T07:40:23;10.80;99.90
61841;DHT22;47773;53.174;6.614;2022-09-27T07:42:58;10.90;99.90
61841;DHT22;47773;53.174;6.614;2022-09-27T07:45:24;10.90;99.90
61841;DHT22;47773;53.174;6.614;2022-09-27T07:47:50;11.10;99.90
61841;DHT22;47773;53.174;6.614;2022-09-27T07:50:16;11.10;99.90
61841;DHT22;47773;53.174;6.614;2022-09-27T07:52:44;11.20;99.90
61841;DHT22;47773;53.174;6.614;2022-09-27T07:55:11;11.30;99.90
61841;DHT22;47773;53.174;6.614;2022-09-27T07:57:38;11.40;99.90
61841;DHT22;47773;53.174;6.614;2022-09-27T08:00:06;11.50;99.90
61841;DHT22;47773;53.174;6.614;2022-09-27T08:04:59;11.50;99.90
61841;DHT22;47773;53.174;6.614;2022-09-27T08:07:25;11.40;99.90
61841;DHT22;47773;53.174;6.614;2022-09-27T08:09:51;11.40;99.90
61841;DHT22;47773;53.174;6.614;2022-09-27T08:12:17;11.30;99.90
61841;DHT22;47773;53.174;6.614;2022-09-27T08:14:46;11.20;99.90
61841;DHT22;47773;53.174;6.614;2022-09-27T08:17:12;11.20;99.90
61841;DHT22;47773;53.174;6.614;2022-09-27T08:19:38;11.10;99.90
61841;DHT22;47773;53.174;6.614;2022-09-27T08:22:08;11.00;99.90
61841;DHT22;47773;53.174;6.614;2022-09-27T08:24:34;11.00;99.90
61841;DHT22;47773;53.174;6.614;2022-09-27T08:27:01;10.90;99.90
61841;DHT22;47773;53.174;6.614;2022-09-27T08:29:27;11.00;99.90
61841;DHT22;47773;53.174;6.614;2022-09-27T08:31:53;11.00;99.90
61841;DHT22;47773;53.174;6.614;2022-09-27T08:34:19;11.00;99.90
61841;DHT22;47773;53.174;6.614;2022-09-27T08:36:45;11.20;99.90
61841;DHT22;47773;53.174;6.614;2022-09-27T08:39:10;11.20;99.90
61841;DHT22;47773;53.174;6.614;2022-09-27T08:41:46;11.30;99.90
61841;DHT22;47773;53.174;6.614;2022-09-27T08:47:10;11.40;99.90
61841;DHT22;47773;53.174;6.614;2022-09-27T08:49:50;11.60;99.90
61841;DHT22;47773;53.174;6.614;2022-09-27T08:52:39;11.60;99.90
61841;DHT22;47773;53.174;6.614;2022-09-27T09:00:15;12.00;99.90
61841;DHT22;47773;53.174;6.614;2022-09-27T09:02:41;12.00;99.90
61841;DHT22;47773;53.174;6.614;2022-09-27T09:05:13;11.80;99.90
61841;DHT22;47773;53.174;6.614;2022-09-27T09:08:22;11.70;99.90
61841;DHT22;47773;53.174;6.614;2022-09-27T09:10:54;11.70;99.90
61841;DHT22;47773;53.174;6.614;2022-09-27T09:16:28;11.70;99.90
61841;DHT22;47773;53.174;6.614;2022-09-27T09:35:20;12.10;99.90
61841;DHT22;47773;53.174;6.614;2022-09-27T09:37:55;12.10;99.90
61841;DHT22;47773;53.174;6.614;2022-09-27T09:40:27;12.10;99.90
61841;DHT22;47773;53.174;6.614;2022-09-27T09:45:39;12.10;99.90
61841;DHT22;47773;53.174;6.614;2022-09-27T09:48:23;12.10;99.90
61841;DHT22;47773;53.174;6.614;2022-09-27T09:50:54;12.10;99.90
61841;DHT22;47773;53.174;6.614;2022-09-27T09:54:04;12.10;99.90
61841;DHT22;47773;53.174;6.614;2022-09-27T09:56:34;12.00;99.90
61841;DHT22;47773;53.174;6.614;2022-09-27T09:59:03;11.90;99.90
61841;DHT22;47773;53.174;6.614;2022-09-27T10:01:40;11.90;99.90
61841;DHT22;47773;53.174;6.614;2022-09-27T10:04:06;11.80;99.90
61841;DHT22;47773;53.174;6.614;2022-09-27T10:06:31;11.90;99.90
61841;DHT22;47773;53.174;6.614;2022-09-27T10:08:58;11.90;99.90
61841;DHT22;47773;53.174;6.614;2022-09-27T10:11:36;11.90;99.90
61841;DHT22;47773;53.174;6.614;2022-09-27T10:14:09;12.00;99.90
61841;DHT22;47773;53.174;6.614;2022-09-27T10:16:36;12.00;99.90
61841;DHT22;47773;53.174;6.614;2022-09-27T10:19:02;12.00;99.90
61841;DHT22;47773;53.174;6.614;2022-09-27T10:21:30;12.00;99.90
61841;DHT22;47773;53.174;6.614;2022-09-27T10:26:30;11.90;99.90
61841;DHT22;47773;53.174;6.614;2022-09-27T10:28:56;11.90;99.90
61841;DHT22;47773;53.174;6.614;2022-09-27T10:31:22;11.90;99.90
61841;DHT22;47773;53.174;6.614;2022-09-27T10:33:54;11.90;99.90
61841;DHT22;47773;53.174;6.614;2022-09-27T10:36:29;11.80;99.90
61841;DHT22;47773;53.174;6.614;2022-09-27T10:38:57;11.80;99.90
61841;DHT22;47773;53.174;6.614;2022-09-27T10:46:45;11.80;99.90
61841;DHT22;47773;53.174;6.614;2022-09-27T10:49:20;11.90;99.90
61841;DHT22;47773;53.174;6.614;2022-09-27T10:52:16;12.00;99.90
61841;DHT22;47773;53.174;6.614;2022-09-27T10:54:52;12.40;99.90
61841;DHT22;47773;53.174;6.614;2022-09-27T10:57:24;12.40;99.90
61841;DHT22;47773;53.174;6.614;2022-09-27T10:59:56;12.40;99.90
61841;DHT22;47773;53.174;6.614;2022-09-27T11:02:27;12.40;99.90
61841;DHT22;47773;53.174;6.614;2022-09-27T11:05:13;12.40;99.90
61841;DHT22;47773;53.174;6.614;2022-09-27T11:07:51;12.50;99.90
61841;DHT22;47773;53.174;6.614;2022-09-27T11:10:29;12.50;99.90
61841;DHT22;47773;53.174;6.614;2022-09-27T11:18:55;12.10;99.90
61841;DHT22;47773;53.174;6.614;2022-09-27T11:30:04;11.60;99.90
61841;DHT22;47773;53.174;6.614;2022-09-27T11:33:07;11.50;99.90
61841;DHT22;47773;53.174;6.614;2022-09-27T11:36:04;11.40;99.90
61841;DHT22;47773;53.174;6.614;2022-09-27T11:50:04;11.50;99.90
61841;DHT22;47773;53.174;6.614;2022-09-27T11:55:45;11.70;99.90
61841;DHT22;47773;53.174;6.614;2022-09-27T12:04:29;12.40;99.90
61841;DHT22;47773;53.174;6.614;2022-09-27T12:09:42;13.10;99.90
61841;DHT22;47773;53.174;6.614;2022-09-27T12:12:18;13.10;99.90
61841;DHT22;47773;53.174;6.614;2022-09-27T12:14:59;13.10;99.90
61841;DHT22;47773;53.174;6.614;2022-09-27T12:17:47;13.10;99.90
61841;DHT22;47773;53.174;6.614;2022-09-27T12:20:29;13.00;99.90
61841;DHT22;47773;53.174;6.614;2022-09-27T12:23:02;12.90;99.90
61841;DHT22;47773;53.174;6.614;2022-09-27T12:25:34;12.80;99.90
61841;DHT22;47773;53.174;6.614;2022-09-27T12:28:08;12.70;99.90
61841;DHT22;47773;53.174;6.614;2022-09-27T12:30:37;12.60;99.90
61841;DHT22;47773;53.174;6.614;2022-09-27T12:33:20;12.60;99.90
61841;DHT22;47773;53.174;6.614;2022-09-27T12:35:53;12.50;99.90
61841;DHT22;47773;53.174;6.614;2022-09-27T12:39:01;12.50;99.90
61841;DHT22;47773;53.174;6.614;2022-09-27T12:41:33;12.50;99.90
61841;DHT22;47773;53.174;6.614;2022-09-27T12:44:00;12.60;99.90
61841;DHT22;47773;53.174;6.614;2022-09-27T13:13:18;13.20;99.90
61841;DHT22;47773;53.174;6.614;2022-09-27T13:15:46;13.40;99.90
61841;DHT22;47773;53.174;6.614;2022-09-27T13:18:49;13.40;99.90
61841;DHT22;47773;53.174;6.614;2022-09-27T13:29:50;13.30;99.90
61841;DHT22;47773;53.174;6.614;2022-09-27T13:32:21;13.30;99.90
61841;DHT22;47773;53.174;6.614;2022-09-27T13:34:50;13.20;99.90
61841;DHT22;47773;53.174;6.614;2022-09-27T13:45:22;12.80;99.90
61841;DHT22;47773;53.174;6.614;2022-09-27T13:47:54;12.70;99.90
61841;DHT22;47773;53.174;6.614;2022-09-27T13:55:46;12.30;99.90
61841;DHT22;47773;53.174;6.614;2022-09-27T14:00:57;12.20;99.90
61841;DHT22;47773;53.174;6.614;2022-09-27T14:03:33;12.10;99.90
61841;DHT22;47773;53.174;6.614;2022-09-27T14:06:04;12.00;99.90
61841;DHT22;47773;53.174;6.614;2022-09-27T14:11:09;11.80;99.90
61841;DHT22;47773;53.174;6.614;2022-09-27T14:13:37;11.70;99.90
61841;DHT22;47773;53.174;6.614;2022-09-27T14:16:04;11.70;99.90
61841;DHT22;47773;53.174;6.614;2022-09-27T14:18:32;11.70;99.90
61841;DHT22;47773;53.174;6.614;2022-09-27T14:21:15;11.70;99.90
61841;DHT22;47773;53.174;6.614;2022-09-27T14:23:42;11.70;99.90
61841;DHT22;47773;53.174;6.614;2022-09-27T14:26:21;11.70;99.90
61841;DHT22;47773;53.174;6.614;2022-09-27T14:28:47;11.70;99.90
61841;DHT22;47773;53.174;6.614;2022-09-27T14:33:42;11.80;99.90
61841;DHT22;47773;53.174;6.614;2022-09-27T14:39:32;11.80;99.90
61841;DHT22;47773;53.174;6.614;2022-09-27T14:42:02;11.80;99.90
61841;DHT22;47773;53.174;6.614;2022-09-27T14:44:29;11.80;99.90
61841;DHT22;47773;53.174;6.614;2022-09-27T14:47:25;11.80;99.90
61841;DHT22;47773;53.174;6.614;2022-09-27T14:52:29;11.80;99.90
61841;DHT22;47773;53.174;6.614;2022-09-27T14:55:04;11.80;99.90
61841;DHT22;47773;53.174;6.614;2022-09-27T14:57:31;11.90;99.90
61841;DHT22;47773;53.174;6.614;2022-09-27T15:00:14;11.90;99.90
61841;DHT22;47773;53.174;6.614;2022-09-27T15:02:41;11.90;99.90
61841;DHT22;47773;53.174;6.614;2022-09-27T15:05:16;11.80;99.90
61841;DHT22;47773;53.174;6.614;2022-09-27T15:07:44;11.90;99.90
61841;DHT22;47773;53.174;6.614;2022-09-27T15:10:18;11.80;99.90
61841;DHT22;47773;53.174;6.614;2022-09-27T15:12:50;11.90;99.90
61841;DHT22;47773;53.174;6.614;2022-09-27T15:15:29;11.80;99.90
61841;DHT22;47773;53.174;6.614;2022-09-27T15:17:58;11.80;99.90
61841;DHT22;47773;53.174;6.614;2022-09-27T15:20:27;11.80;99.90
61841;DHT22;47773;53.174;6.614;2022-09-27T15:22:54;11.80;99.90
61841;DHT22;47773;53.174;6.614;2022-09-27T15:30:37;11.80;99.90
61841;DHT22;47773;53.174;6.614;2022-09-27T15:33:05;11.80;99.90
61841;DHT22;47773;53.174;6.614;2022-09-27T15:35:34;11.80;99.90
61841;DHT22;47773;53.174;6.614;2022-09-27T15:41:01;11.70;99.90
61841;DHT22;47773;53.174;6.614;2022-09-27T15:43:33;11.60;99.90
61841;DHT22;47773;53.174;6.614;2022-09-27T15:46:46;11.60;99.90
61841;DHT22;47773;53.174;6.614;2022-09-27T15:51:42;11.60;99.90
61841;DHT22;47773;53.174;6.614;2022-09-27T15:54:08;11.50;99.90
61841;DHT22;47773;53.174;6.614;2022-09-27T15:59:01;11.70;99.90
61841;DHT22;47773;53.174;6.614;2022-09-27T16:01:27;11.60;99.90
61841;DHT22;47773;53.174;6.614;2022-09-27T16:03:53;11.60;99.90
61841;DHT22;47773;53.174;6.614;2022-09-27T16:06:19;11.60;99.90
61841;DHT22;47773;53.174;6.614;2022-09-27T16:08:48;11.60;99.90
61841;DHT22;47773;53.174;6.614;2022-09-27T16:11:15;11.60;99.90
61841;DHT22;47773;53.174;6.614;2022-09-27T16:13:42;11.50;99.90
61841;DHT22;47773;53.174;6.614;2022-09-27T16:16:13;11.50;99.90
61841;DHT22;47773;53.174;6.614;2022-09-27T16:18:40;11.50;99.90
61841;DHT22;47773;53.174;6.614;2022-09-27T16:21:06;11.50;99.90
61841;DHT22;47773;53.174;6.614;2022-09-27T16:23:33;11.50;99.90
61841;DHT22;47773;53.174;6.614;2022-09-27T16:25:59;11.50;99.90
61841;DHT22;47773;53.174;6.614;2022-09-27T16:28:24;11.50;99.90
61841;DHT22;47773;53.174;6.614;2022-09-27T16:30:50;11.50;99.90
61841;DHT22;47773;53.174;6.614;2022-09-27T16:33:16;11.50;99.90
61841;DHT22;47773;53.174;6.614;2022-09-27T16:35:42;11.40;99.90
61841;DHT22;47773;53.174;6.614;2022-09-27T16:38:08;11.40;99.90
61841;DHT22;47773;53.174;6.614;2022-09-27T16:40:35;11.40;99.90
61841;DHT22;47773;53.174;6.614;2022-09-27T16:43:01;11.30;99.90
61841;DHT22;47773;53.174;6.614;2022-09-27T16:45:32;11.30;99.90
61841;DHT22;47773;53.174;6.614;2022-09-27T16:47:59;11.30;99.90
61841;DHT22;47773;53.174;6.614;2022-09-27T16:50:25;11.20;99.90
61841;DHT22;47773;53.174;6.614;2022-09-27T16:53:10;11.20;99.90
61841;DHT22;47773;53.174;6.614;2022-09-27T17:00:31;11.10;99.90
61841;DHT22;47773;53.174;6.614;2022-09-27T17:02:58;11.10;99.90
61841;DHT22;47773;53.174;6.614;2022-09-27T17:05:24;11.10;99.90
61841;DHT22;47773;53.174;6.614;2022-09-27T17:07:51;11.00;99.90
61841;DHT22;47773;53.174;6.614;2022-09-27T17:10:18;11.00;99.90
61841;DHT22;47773;53.174;6.614;2022-09-27T17:12:44;11.00;99.90
61841;DHT22;47773;53.174;6.614;2022-09-27T17:15:12;11.00;99.90
61841;DHT22;47773;53.174;6.614;2022-09-27T17:17:37;10.90;99.90
61841;DHT22;47773;53.174;6.614;2022-09-27T17:20:03;10.80;99.90
61841;DHT22;47773;53.174;6.614;2022-09-27T17:22:30;10.80;99.90
61841;DHT22;47773;53.174;6.614;2022-09-27T17:24:55;10.70;99.90
61841;DHT22;47773;53.174;6.614;2022-09-27T17:27:22;10.70;99.90
61841;DHT22;47773;53.174;6.614;2022-09-27T17:29:49;10.60;99.90
61841;DHT22;47773;53.174;6.614;2022-09-27T17:32:15;10.60;99.90
61841;DHT22;47773;53.174;6.614;2022-09-27T17:34:40;10.50;99.90
61841;DHT22;47773;53.174;6.614;2022-09-27T17:37:09;10.50;99.90
61841;DHT22;47773;53.174;6.614;2022-09-27T17:39:35;10.50;99.90
61841;DHT22;47773;53.174;6.614;2022-09-27T17:42:01;10.40;99.90
61841;DHT22;47773;53.174;6.614;2022-09-27T17:44:27;10.40;99.90
61841;DHT22;47773;53.174;6.614;2022-09-27T17:46:53;10.30;99.90
61841;DHT22;47773;53.174;6.614;2022-09-27T17:49:37;10.30;99.90
61841;DHT22;47773;53.174;6.614;2022-09-27T17:52:21;10.30;99.90
61841;DHT22;47773;53.174;6.614;2022-09-27T17:54:51;10.20;99.90
61841;DHT22;47773;53.174;6.614;2022-09-27T17:57:20;10.20;99.90
61841;DHT22;47773;53.174;6.614;2022-09-27T17:59:47;10.10;99.90
61841;DHT22;47773;53.174;6.614;2022-09-27T18:02:12;10.10;99.90
61841;DHT22;47773;53.174;6.614;2022-09-27T18:04:38;10.10;99.90
61841;DHT22;47773;53.174;6.614;2022-09-27T18:07:03;10.10;99.90
61841;DHT22;47773;53.174;6.614;2022-09-27T18:09:29;10.10;99.90
61841;DHT22;47773;53.174;6.614;2022-09-27T18:11:57;10.10;99.90
61841;DHT22;47773;53.174;6.614;2022-09-27T18:14:24;10.20;99.90
61841;DHT22;47773;53.174;6.614;2022-09-27T18:16:51;10.20;99.90
61841;DHT22;47773;53.174;6.614;2022-09-27T18:19:18;10.20;99.90
61841;DHT22;47773;53.174;6.614;2022-09-27T18:21:44;10.20;99.90
61841;DHT22;47773;53.174;6.614;2022-09-27T18:24:10;10.20;99.90
61841;DHT22;47773;53.174;6.614;2022-09-27T18:26:36;10.20;99.90
61841;DHT22;47773;53.174;6.614;2022-09-27T18:29:06;10.20;99.90
61841;DHT22;47773;53.174;6.614;2022-09-27T18:31:32;10.20;99.90
61841;DHT22;47773;53.174;6.614;2022-09-27T18:33:57;10.20;99.90
61841;DHT22;47773;53.174;6.614;2022-09-27T18:36:26;10.20;99.90
61841;DHT22;47773;53.174;6.614;2022-09-27T18:39:04;10.20;99.90
61841;DHT22;47773;53.174;6.614;2022-09-27T18:41:31;10.20;99.90
61841;DHT22;47773;53.174;6.614;2022-09-27T18:44:00;10.10;99.90
61841;DHT22;47773;53.174;6.614;2022-09-27T18:46:28;10.10;99.90
61841;DHT22;47773;53.174;6.614;2022-09-27T18:48:54;10.20;99.90
61841;DHT22;47773;53.174;6.614;2022-09-27T18:51:24;10.10;99.90
61841;DHT22;47773;53.174;6.614;2022-09-27T18:53:55;10.20;99.90
61841;DHT22;47773;53.174;6.614;2022-09-27T18:56:22;10.10;99.90
61841;DHT22;47773;53.174;6.614;2022-09-27T18:58:48;10.10;99.90
61841;DHT22;47773;53.174;6.614;2022-09-27T19:01:15;10.10;99.90
61841;DHT22;47773;53.174;6.614;2022-09-27T19:03:41;10.10;99.90